sensor_id;sensor_type;location;lat;lon;timestamp;P1;durP1;ratioP1;P2;durP2;ratioP2
59734;SDS011;64362;45.620;4.920;2022-11-21T00:00:34;3.63;;;2.00;;
59734;SDS011;64362;45.620;4.920;2022-11-21T00:03:00;4.82;;;2.20;;
59734;SDS011;64362;45.620;4.920;2022-11-21T00:05:26;3.78;;;2.15;;
59734;SDS011;64362;45.620;4.920;2022-11-21T00:07:53;5.15;;;2.35;;
59734;SDS011;64362;45.620;4.920;2022-11-21T00:10:19;4.35;;;2.03;;
59734;SDS011;64362;45.620;4.920;2022-11-21T00:12:44;4.22;;;2.13;;
59734;SDS011;64362;45.620;4.920;2022-11-21T00:15:10;5.18;;;2.30;;
59734;SDS011;64362;45.620;4.920;2022-11-21T00:17:35;5.03;;;2.38;;
59734;SDS011;64362;45.620;4.920;2022-11-21T00:20:00;4.70;;;2.25;;
59734;SDS011;64362;45.620;4.920;2022-11-21T00:22:26;4.30;;;2.40;;
59734;SDS011;64362;45.620;4.920;2022-11-21T00:24:51;5.13;;;2.20;;
59734;SDS011;64362;45.620;4.920;2022-11-21T00:27:17;4.45;;;2.05;;
59734;SDS011;64362;45.620;4.920;2022-11-21T00:29:42;4.97;;;2.13;;
59734;SDS011;64362;45.620;4.920;2022-11-21T00:32:08;6.65;;;2.60;;
59734;SDS011;64362;45.620;4.920;2022-11-21T00:34:33;3.72;;;1.80;;
59734;SDS011;64362;45.620;4.920;2022-11-21T00:36:59;4.82;;;2.13;;
59734;SDS011;64362;45.620;4.920;2022-11-21T00:39:24;4.45;;;2.30;;
59734;SDS011;64362;45.620;4.920;2022-11-21T00:41:50;3.65;;;2.10;;
59734;SDS011;64362;45.620;4.920;2022-11-21T00:44:15;3.75;;;2.35;;
59734;SDS011;64362;45.620;4.920;2022-11-21T00:46:40;5.55;;;2.20;;
59734;SDS011;64362;45.620;4.920;2022-11-21T00:49:06;5.53;;;2.50;;
59734;SDS011;64362;45.620;4.920;2022-11-21T00:51:31;3.63;;;2.08;;
59734;SDS011;64362;45.620;4.920;2022-11-21T00:53:57;4.28;;;1.92;;
59734;SDS011;64362;45.620;4.920;2022-11-21T00:56:22;5.03;;;2.10;;
59734;SDS011;64362;45.620;4.920;2022-11-21T00:58:48;4.80;;;2.20;;
59734;SDS011;64362;45.620;4.920;2022-11-21T01:01:14;4.18;;;2.00;;
59734;SDS011;64362;45.620;4.920;2022-11-21T01:03:39;6.80;;;2.38;;
59734;SDS011;64362;45.620;4.920;2022-11-21T01:06:06;5.80;;;2.47;;
59734;SDS011;64362;45.620;4.920;2022-11-21T01:08:34;4.32;;;2.20;;
59734;SDS011;64362;45.620;4.920;2022-11-21T01:11:01;3.67;;;2.00;;
59734;SDS011;64362;45.620;4.920;2022-11-21T01:13:28;6.00;;;2.30;;
59734;SDS011;64362;45.620;4.920;2022-11-21T01:15:53;4.22;;;2.33;;
59734;SDS011;64362;45.620;4.920;2022-11-21T01:18:19;3.90;;;1.95;;
59734;SDS011;64362;45.620;4.920;2022-11-21T01:20:44;4.32;;;2.30;;
59734;SDS011;64362;45.620;4.920;2022-11-21T01:23:10;3.78;;;2.17;;
59734;SDS011;64362;45.620;4.920;2022-11-21T01:25:36;4.20;;;1.80;;
59734;SDS011;64362;45.620;4.920;2022-11-21T01:28:01;5.57;;;2.22;;
59734;SDS011;64362;45.620;4.920;2022-11-21T01:30:27;3.30;;;1.90;;
59734;SDS011;64362;45.620;4.920;2022-11-21T01:32:53;3.40;;;2.15;;
59734;SDS011;64362;45.620;4.920;2022-11-21T01:35:18;4.07;;;1.92;;
59734;SDS011;64362;45.620;4.920;2022-11-21T01:37:47;3.58;;;2.00;;
59734;SDS011;64362;45.620;4.920;2022-11-21T01:40:13;4.32;;;1.92;;
59734;SDS011;64362;45.620;4.920;2022-11-21T01:43:00;4.38;;;2.30;;
59734;SDS011;64362;45.620;4.920;2022-11-21T01:48:19;3.67;;;2.30;;
59734;SDS011;64362;45.620;4.920;2022-11-21T01:50:47;4.22;;;1.90;;
59734;SDS011;64362;45.620;4.920;2022-11-21T01:53:13;5.78;;;2.20;;
59734;SDS011;64362;45.620;4.920;2022-11-21T01:55:38;4.07;;;2.10;;
59734;SDS011;64362;45.620;4.920;2022-11-21T01:58:03;3.60;;;2.13;;
59734;SDS011;64362;45.620;4.920;2022-11-21T02:00:31;3.92;;;2.05;;
59734;SDS011;64362;45.620;4.920;2022-11-21T02:03:03;6.25;;;2.30;;
59734;SDS011;64362;45.620;4.920;2022-11-21T02:05:34;4.97;;;2.10;;
59734;SDS011;64362;45.620;4.920;2022-11-21T02:08:01;4.22;;;2.10;;
59734;SDS011;64362;45.620;4.920;2022-11-21T02:10:28;6.25;;;2.42;;
59734;SDS011;64362;45.620;4.920;2022-11-21T02:12:57;3.80;;;1.90;;
59734;SDS011;64362;45.620;4.920;2022-11-21T02:15:23;4.75;;;2.35;;
59734;SDS011;64362;45.620;4.920;2022-11-21T02:17:51;3.25;;;1.95;;
59734;SDS011;64362;45.620;4.920;2022-11-21T02:20:17;4.28;;;2.33;;
59734;SDS011;64362;45.620;4.920;2022-11-21T02:22:52;3.88;;;2.10;;
59734;SDS011;64362;45.620;4.920;2022-11-21T02:25:25;5.20;;;1.92;;
59734;SDS011;64362;45.620;4.920;2022-11-21T02:27:52;3.78;;;1.92;;
59734;SDS011;64362;45.620;4.920;2022-11-21T02:30:20;4.97;;;2.33;;
59734;SDS011;64362;45.620;4.920;2022-11-21T02:32:46;6.18;;;2.53;;
59734;SDS011;64362;45.620;4.920;2022-11-21T02:35:13;3.33;;;2.33;;
59734;SDS011;64362;45.620;4.920;2022-11-21T02:37:39;4.07;;;2.25;;
59734;SDS011;64362;45.620;4.920;2022-11-21T02:40:06;5.60;;;2.78;;
59734;SDS011;64362;45.620;4.920;2022-11-21T02:42:42;3.60;;;2.22;;
59734;SDS011;64362;45.620;4.920;2022-11-21T02:45:24;5.38;;;2.55;;
59734;SDS011;64362;45.620;4.920;2022-11-21T02:47:53;4.07;;;2.45;;
59734;SDS011;64362;45.620;4.920;2022-11-21T02:50:22;4.85;;;2.30;;
59734;SDS011;64362;45.620;4.920;2022-11-21T02:52:51;4.82;;;2.65;;
59734;SDS011;64362;45.620;4.920;2022-11-21T02:55:16;3.45;;;1.90;;
59734;SDS011;64362;45.620;4.920;2022-11-21T02:57:42;3.53;;;2.40;;
59734;SDS011;64362;45.620;4.920;2022-11-21T03:00:08;4.88;;;2.00;;
59734;SDS011;64362;45.620;4.920;2022-11-21T03:02:35;3.85;;;2.47;;
59734;SDS011;64362;45.620;4.920;2022-11-21T03:05:02;4.65;;;2.22;;
59734;SDS011;64362;45.620;4.920;2022-11-21T03:07:28;3.45;;;2.08;;
59734;SDS011;64362;45.620;4.920;2022-11-21T03:09:53;4.28;;;2.28;;
59734;SDS011;64362;45.620;4.920;2022-11-21T03:12:19;4.00;;;2.22;;
59734;SDS011;64362;45.620;4.920;2022-11-21T03:14:44;3.95;;;2.25;;
59734;SDS011;64362;45.620;4.920;2022-11-21T03:17:10;5.95;;;2.50;;
59734;SDS011;64362;45.620;4.920;2022-11-21T03:19:35;3.85;;;2.30;;
59734;SDS011;64362;45.620;4.920;2022-11-21T03:22:01;5.07;;;2.33;;
59734;SDS011;64362;45.620;4.920;2022-11-21T03:24:26;3.92;;;2.20;;
59734;SDS011;64362;45.620;4.920;2022-11-21T03:26:51;4.50;;;2.15;;
59734;SDS011;64362;45.620;4.920;2022-11-21T03:29:17;4.43;;;2.58;;
59734;SDS011;64362;45.620;4.920;2022-11-21T03:31:43;3.97;;;2.30;;
59734;SDS011;64362;45.620;4.920;2022-11-21T03:34:08;3.17;;;2.20;;
59734;SDS011;64362;45.620;4.920;2022-11-21T03:36:33;4.45;;;2.00;;
59734;SDS011;64362;45.620;4.920;2022-11-21T03:38:59;4.45;;;2.28;;
59734;SDS011;64362;45.620;4.920;2022-11-21T03:41:25;3.50;;;2.25;;
59734;SDS011;64362;45.620;4.920;2022-11-21T03:43:54;3.30;;;1.98;;
59734;SDS011;64362;45.620;4.920;2022-11-21T03:46:21;5.18;;;2.45;;
59734;SDS011;64362;45.620;4.920;2022-11-21T03:48:46;3.63;;;2.10;;
59734;SDS011;64362;45.620;4.920;2022-11-21T03:51:12;4.63;;;2.25;;
59734;SDS011;64362;45.620;4.920;2022-11-21T03:53:37;4.05;;;2.13;;
59734;SDS011;64362;45.620;4.920;2022-11-21T03:56:03;4.03;;;2.00;;
59734;SDS011;64362;45.620;4.920;2022-11-21T03:58:28;3.50;;;2.05;;
59734;SDS011;64362;45.620;4.920;2022-11-21T04:00:54;4.50;;;2.40;;
59734;SDS011;64362;45.620;4.920;2022-11-21T04:03:19;4.20;;;2.38;;
59734;SDS011;64362;45.620;4.920;2022-11-21T04:05:44;3.97;;;2.25;;
59734;SDS011;64362;45.620;4.920;2022-11-21T04:08:10;3.58;;;2.10;;
59734;SDS011;64362;45.620;4.920;2022-11-21T04:10:35;3.40;;;2.03;;
59734;SDS011;64362;45.620;4.920;2022-11-21T04:13:01;4.28;;;2.20;;
59734;SDS011;64362;45.620;4.920;2022-11-21T04:15:26;4.07;;;2.20;;
59734;SDS011;64362;45.620;4.920;2022-11-21T04:17:52;4.13;;;1.95;;
59734;SDS011;64362;45.620;4.920;2022-11-21T04:20:17;3.50;;;2.20;;
59734;SDS011;64362;45.620;4.920;2022-11-21T04:22:43;3.42;;;2.00;;
59734;SDS011;64362;45.620;4.920;2022-11-21T04:25:08;4.75;;;2.45;;
59734;SDS011;64362;45.620;4.920;2022-11-21T04:27:34;4.32;;;2.00;;
59734;SDS011;64362;45.620;4.920;2022-11-21T04:29:59;3.50;;;2.42;;
59734;SDS011;64362;45.620;4.920;2022-11-21T04:32:25;4.38;;;2.10;;
59734;SDS011;64362;45.620;4.920;2022-11-21T04:34:50;3.65;;;2.20;;
59734;SDS011;64362;45.620;4.920;2022-11-21T04:37:16;4.10;;;2.28;;
59734;SDS011;64362;45.620;4.920;2022-11-21T04:39:41;3.60;;;1.98;;
59734;SDS011;64362;45.620;4.920;2022-11-21T04:42:07;3.65;;;2.55;;
59734;SDS011;64362;45.620;4.920;2022-11-21T04:44:32;3.45;;;2.10;;
59734;SDS011;64362;45.620;4.920;2022-11-21T04:46:57;4.63;;;2.15;;
59734;SDS011;64362;45.620;4.920;2022-11-21T04:49:24;3.83;;;2.05;;
59734;SDS011;64362;45.620;4.920;2022-11-21T04:51:49;4.32;;;2.08;;
59734;SDS011;64362;45.620;4.920;2022-11-21T04:54:15;3.65;;;2.10;;
59734;SDS011;64362;45.620;4.920;2022-11-21T04:56:40;4.05;;;2.20;;
59734;SDS011;64362;45.620;4.920;2022-11-21T04:59:05;3.60;;;2.03;;
59734;SDS011;64362;45.620;4.920;2022-11-21T05:01:31;4.78;;;2.35;;
59734;SDS011;64362;45.620;4.920;2022-11-21T05:03:56;4.13;;;2.22;;
59734;SDS011;64362;45.620;4.920;2022-11-21T05:06:22;3.55;;;2.50;;
59734;SDS011;64362;45.620;4.920;2022-11-21T05:08:47;3.10;;;2.15;;
59734;SDS011;64362;45.620;4.920;2022-11-21T05:11:13;4.40;;;2.17;;
59734;SDS011;64362;45.620;4.920;2022-11-21T05:13:57;5.03;;;2.33;;
59734;SDS011;64362;45.620;4.920;2022-11-21T05:16:22;5.30;;;2.42;;
59734;SDS011;64362;45.620;4.920;2022-11-21T05:18:48;3.55;;;2.05;;
59734;SDS011;64362;45.620;4.920;2022-11-21T05:21:13;3.75;;;1.88;;
59734;SDS011;64362;45.620;4.920;2022-11-21T05:23:39;3.58;;;2.47;;
59734;SDS011;64362;45.620;4.920;2022-11-21T05:26:04;4.43;;;2.03;;
59734;SDS011;64362;45.620;4.920;2022-11-21T05:28:29;3.05;;;1.73;;
59734;SDS011;64362;45.620;4.920;2022-11-21T05:30:55;4.45;;;2.08;;
59734;SDS011;64362;45.620;4.920;2022-11-21T05:33:21;4.25;;;2.00;;
59734;SDS011;64362;45.620;4.920;2022-11-21T05:35:46;5.10;;;1.92;;
59734;SDS011;64362;45.620;4.920;2022-11-21T05:38:12;3.83;;;2.33;;
59734;SDS011;64362;45.620;4.920;2022-11-21T05:40:37;3.03;;;2.17;;
59734;SDS011;64362;45.620;4.920;2022-11-21T05:43:03;3.67;;;1.80;;
59734;SDS011;64362;45.620;4.920;2022-11-21T05:45:48;3.63;;;2.03;;
59734;SDS011;64362;45.620;4.920;2022-11-21T05:48:14;5.45;;;2.10;;
59734;SDS011;64362;45.620;4.920;2022-11-21T05:50:39;3.03;;;1.90;;
59734;SDS011;64362;45.620;4.920;2022-11-21T05:53:05;4.25;;;2.30;;
59734;SDS011;64362;45.620;4.920;2022-11-21T05:55:32;3.92;;;2.00;;
59734;SDS011;64362;45.620;4.920;2022-11-21T05:57:58;3.25;;;1.75;;
59734;SDS011;64362;45.620;4.920;2022-11-21T06:00:24;4.38;;;1.88;;
59734;SDS011;64362;45.620;4.920;2022-11-21T06:02:49;4.25;;;2.00;;
59734;SDS011;64362;45.620;4.920;2022-11-21T06:05:33;3.17;;;1.70;;
59734;SDS011;64362;45.620;4.920;2022-11-21T06:07:59;3.85;;;1.98;;
59734;SDS011;64362;45.620;4.920;2022-11-21T06:10:24;3.33;;;2.13;;
59734;SDS011;64362;45.620;4.920;2022-11-21T06:12:50;3.80;;;1.90;;
59734;SDS011;64362;45.620;4.920;2022-11-21T06:15:15;3.35;;;1.80;;
59734;SDS011;64362;45.620;4.920;2022-11-21T06:17:41;4.60;;;2.10;;
59734;SDS011;64362;45.620;4.920;2022-11-21T06:20:06;3.28;;;2.00;;
59734;SDS011;64362;45.620;4.920;2022-11-21T06:22:32;4.43;;;1.98;;
59734;SDS011;64362;45.620;4.920;2022-11-21T06:24:58;2.78;;;1.73;;
59734;SDS011;64362;45.620;4.920;2022-11-21T06:27:23;4.15;;;2.03;;
59734;SDS011;64362;45.620;4.920;2022-11-21T06:29:49;3.90;;;1.90;;
59734;SDS011;64362;45.620;4.920;2022-11-21T06:32:14;2.80;;;1.80;;
59734;SDS011;64362;45.620;4.920;2022-11-21T06:34:40;4.30;;;1.75;;
59734;SDS011;64362;45.620;4.920;2022-11-21T06:37:05;4.40;;;2.00;;
59734;SDS011;64362;45.620;4.920;2022-11-21T06:39:31;5.97;;;2.00;;
59734;SDS011;64362;45.620;4.920;2022-11-21T06:41:56;4.07;;;1.75;;
59734;SDS011;64362;45.620;4.920;2022-11-21T06:44:23;3.38;;;1.70;;
59734;SDS011;64362;45.620;4.920;2022-11-21T06:46:48;3.97;;;1.80;;
59734;SDS011;64362;45.620;4.920;2022-11-21T06:49:14;5.22;;;2.03;;
59734;SDS011;64362;45.620;4.920;2022-11-21T06:51:39;4.68;;;1.73;;
59734;SDS011;64362;45.620;4.920;2022-11-21T06:54:05;4.50;;;2.00;;
59734;SDS011;64362;45.620;4.920;2022-11-21T06:56:30;4.60;;;1.90;;
59734;SDS011;64362;45.620;4.920;2022-11-21T06:58:56;8.85;;;2.45;;
59734;SDS011;64362;45.620;4.920;2022-11-21T07:01:22;9.13;;;2.50;;
59734;SDS011;64362;45.620;4.920;2022-11-21T07:03:48;5.72;;;2.42;;
59734;SDS011;64362;45.620;4.920;2022-11-21T07:06:13;10.25;;;3.40;;
59734;SDS011;64362;45.620;4.920;2022-11-21T07:08:39;7.82;;;3.08;;
59734;SDS011;64362;45.620;4.920;2022-11-21T07:11:06;9.85;;;3.50;;
59734;SDS011;64362;45.620;4.920;2022-11-21T07:13:36;8.05;;;3.53;;
59734;SDS011;64362;45.620;4.920;2022-11-21T07:16:03;8.93;;;3.38;;
59734;SDS011;64362;45.620;4.920;2022-11-21T07:18:30;10.63;;;3.60;;
59734;SDS011;64362;45.620;4.920;2022-11-21T07:20:59;10.85;;;3.63;;
59734;SDS011;64362;45.620;4.920;2022-11-21T07:23:25;7.80;;;3.10;;
59734;SDS011;64362;45.620;4.920;2022-11-21T07:25:51;7.80;;;3.20;;
59734;SDS011;64362;45.620;4.920;2022-11-21T07:28:17;4.30;;;2.70;;
59734;SDS011;64362;45.620;4.920;2022-11-21T07:30:42;6.97;;;2.65;;
59734;SDS011;64362;45.620;4.920;2022-11-21T07:33:08;6.22;;;2.78;;
59734;SDS011;64362;45.620;4.920;2022-11-21T07:35:34;5.50;;;2.80;;
59734;SDS011;64362;45.620;4.920;2022-11-21T07:38:00;6.40;;;3.00;;
59734;SDS011;64362;45.620;4.920;2022-11-21T07:40:26;6.18;;;3.00;;
59734;SDS011;64362;45.620;4.920;2022-11-21T07:42:51;4.93;;;2.85;;
59734;SDS011;64362;45.620;4.920;2022-11-21T07:45:17;6.38;;;3.00;;
59734;SDS011;64362;45.620;4.920;2022-11-21T07:47:43;4.78;;;3.08;;
59734;SDS011;64362;45.620;4.920;2022-11-21T07:50:09;7.25;;;2.95;;
59734;SDS011;64362;45.620;4.920;2022-11-21T07:52:36;6.63;;;2.80;;
59734;SDS011;64362;45.620;4.920;2022-11-21T07:55:02;6.70;;;2.80;;
59734;SDS011;64362;45.620;4.920;2022-11-21T07:57:30;3.67;;;2.50;;
59734;SDS011;64362;45.620;4.920;2022-11-21T07:59:55;6.60;;;2.80;;
59734;SDS011;64362;45.620;4.920;2022-11-21T08:02:25;6.43;;;2.70;;
59734;SDS011;64362;45.620;4.920;2022-11-21T08:04:52;4.93;;;2.38;;
59734;SDS011;64362;45.620;4.920;2022-11-21T08:07:18;5.13;;;2.60;;
59734;SDS011;64362;45.620;4.920;2022-11-21T08:09:46;3.90;;;2.33;;
59734;SDS011;64362;45.620;4.920;2022-11-21T08:12:12;7.55;;;2.50;;
59734;SDS011;64362;45.620;4.920;2022-11-21T08:14:37;4.25;;;2.20;;
59734;SDS011;64362;45.620;4.920;2022-11-21T08:17:03;3.55;;;2.10;;
59734;SDS011;64362;45.620;4.920;2022-11-21T08:19:29;5.05;;;2.33;;
59734;SDS011;64362;45.620;4.920;2022-11-21T08:21:55;5.53;;;2.25;;
59734;SDS011;64362;45.620;4.920;2022-11-21T08:24:20;5.00;;;2.20;;
59734;SDS011;64362;45.620;4.920;2022-11-21T08:26:46;4.40;;;2.28;;
59734;SDS011;64362;45.620;4.920;2022-11-21T08:29:12;4.88;;;2.42;;
59734;SDS011;64362;45.620;4.920;2022-11-21T08:31:39;4.32;;;2.30;;
59734;SDS011;64362;45.620;4.920;2022-11-21T08:34:05;4.97;;;2.03;;
59734;SDS011;64362;45.620;4.920;2022-11-21T08:36:31;4.25;;;2.10;;
59734;SDS011;64362;45.620;4.920;2022-11-21T08:38:56;6.90;;;2.38;;
59734;SDS011;64362;45.620;4.920;2022-11-21T08:41:22;8.18;;;2.17;;
59734;SDS011;64362;45.620;4.920;2022-11-21T08:44:06;5.32;;;1.90;;
59734;SDS011;64362;45.620;4.920;2022-11-21T08:46:33;5.45;;;2.70;;
59734;SDS011;64362;45.620;4.920;2022-11-21T08:49:01;4.15;;;1.95;;
59734;SDS011;64362;45.620;4.920;2022-11-21T08:51:27;4.47;;;1.95;;
59734;SDS011;64362;45.620;4.920;2022-11-21T08:53:53;6.18;;;2.53;;
59734;SDS011;64362;45.620;4.920;2022-11-21T08:56:18;4.10;;;2.10;;
59734;SDS011;64362;45.620;4.920;2022-11-21T08:58:44;2.90;;;1.80;;
59734;SDS011;64362;45.620;4.920;2022-11-21T09:01:09;3.75;;;2.20;;
59734;SDS011;64362;45.620;4.920;2022-11-21T09:03:34;4.20;;;1.70;;
59734;SDS011;64362;45.620;4.920;2022-11-21T09:06:00;3.38;;;1.85;;
59734;SDS011;64362;45.620;4.920;2022-11-21T09:08:26;4.15;;;2.20;;
59734;SDS011;64362;45.620;4.920;2022-11-21T09:10:51;4.57;;;2.00;;
59734;SDS011;64362;45.620;4.920;2022-11-21T09:13:17;5.00;;;1.95;;
59734;SDS011;64362;45.620;4.920;2022-11-21T09:15:42;3.30;;;1.73;;
59734;SDS011;64362;45.620;4.920;2022-11-21T09:18:26;4.22;;;1.90;;
59734;SDS011;64362;45.620;4.920;2022-11-21T09:20:52;3.78;;;1.92;;
59734;SDS011;64362;45.620;4.920;2022-11-21T09:23:17;3.40;;;2.13;;
59734;SDS011;64362;45.620;4.920;2022-11-21T09:25:44;2.90;;;1.98;;
59734;SDS011;64362;45.620;4.920;2022-11-21T09:28:10;4.15;;;2.20;;
59734;SDS011;64362;45.620;4.920;2022-11-21T09:30:36;3.90;;;2.03;;
59734;SDS011;64362;45.620;4.920;2022-11-21T09:33:03;3.78;;;2.00;;
59734;SDS011;64362;45.620;4.920;2022-11-21T09:35:30;4.15;;;2.00;;
59734;SDS011;64362;45.620;4.920;2022-11-21T09:37:55;4.55;;;2.17;;
59734;SDS011;64362;45.620;4.920;2022-11-21T09:40:21;2.60;;;1.60;;
59734;SDS011;64362;45.620;4.920;2022-11-21T09:45:46;5.50;;;2.20;;
59734;SDS011;64362;45.620;4.920;2022-11-21T09:48:20;3.75;;;2.22;;
59734;SDS011;64362;45.620;4.920;2022-11-21T09:50:51;4.20;;;2.17;;
59734;SDS011;64362;45.620;4.920;2022-11-21T09:53:23;4.53;;;2.30;;
59734;SDS011;64362;45.620;4.920;2022-11-21T09:55:54;3.78;;;2.20;;
59734;SDS011;64362;45.620;4.920;2022-11-21T10:01:00;4.30;;;2.30;;
59734;SDS011;64362;45.620;4.920;2022-11-21T10:03:28;4.78;;;2.65;;
59734;SDS011;64362;45.620;4.920;2022-11-21T10:05:57;3.60;;;2.08;;
59734;SDS011;64362;45.620;4.920;2022-11-21T10:08:29;3.47;;;2.28;;
59734;SDS011;64362;45.620;4.920;2022-11-21T10:11:03;4.32;;;2.45;;
59734;SDS011;64362;45.620;4.920;2022-11-21T10:16:48;4.25;;;2.33;;
59734;SDS011;64362;45.620;4.920;2022-11-21T10:19:29;4.15;;;2.70;;
59734;SDS011;64362;45.620;4.920;2022-11-21T10:24:35;3.85;;;2.20;;
59734;SDS011;64362;45.620;4.920;2022-11-21T10:28:11;3.83;;;2.40;;
59734;SDS011;64362;45.620;4.920;2022-11-21T10:30:17;3.72;;;2.17;;
59734;SDS011;64362;45.620;4.920;2022-11-21T10:32:51;4.68;;;2.35;;
59734;SDS011;64362;45.620;4.920;2022-11-21T10:35:22;4.75;;;2.72;;
59734;SDS011;64362;45.620;4.920;2022-11-21T10:37:51;3.47;;;2.38;;
59734;SDS011;64362;45.620;4.920;2022-11-21T10:43:25;3.97;;;2.00;;
59734;SDS011;64362;45.620;4.920;2022-11-21T10:48:34;3.85;;;2.22;;
59734;SDS011;64362;45.620;4.920;2022-11-21T10:51:11;4.20;;;2.30;;
59734;SDS011;64362;45.620;4.920;2022-11-21T10:53:41;4.25;;;2.40;;
59734;SDS011;64362;45.620;4.920;2022-11-21T10:56:25;5.63;;;2.22;;
59734;SDS011;64362;45.620;4.920;2022-11-21T10:58:52;5.10;;;2.20;;
59734;SDS011;64362;45.620;4.920;2022-11-21T11:01:20;3.78;;;2.13;;
59734;SDS011;64362;45.620;4.920;2022-11-21T11:06:32;3.60;;;2.22;;
59734;SDS011;64362;45.620;4.920;2022-11-21T11:08:58;5.25;;;2.40;;
59734;SDS011;64362;45.620;4.920;2022-11-21T11:11:24;3.25;;;2.10;;
59734;SDS011;64362;45.620;4.920;2022-11-21T11:16:25;4.18;;;2.60;;
59734;SDS011;64362;45.620;4.920;2022-11-21T11:21:25;4.18;;;2.40;;
59734;SDS011;64362;45.620;4.920;2022-11-21T11:23:52;4.05;;;2.10;;
59734;SDS011;64362;45.620;4.920;2022-11-21T11:26:26;4.72;;;2.05;;
59734;SDS011;64362;45.620;4.920;2022-11-21T11:29:01;3.87;;;2.43;;
59734;SDS011;64362;45.620;4.920;2022-11-21T11:31:42;3.40;;;1.90;;
59734;SDS011;64362;45.620;4.920;2022-11-21T11:34:13;3.78;;;2.38;;
59734;SDS011;64362;45.620;4.920;2022-11-21T11:36:55;3.42;;;2.20;;
59734;SDS011;64362;45.620;4.920;2022-11-21T11:45:56;3.30;;;2.00;;
59734;SDS011;64362;45.620;4.920;2022-11-21T11:48:20;4.38;;;1.88;;
59734;SDS011;64362;45.620;4.920;2022-11-21T11:50:49;3.53;;;2.22;;
59734;SDS011;64362;45.620;4.920;2022-11-21T11:53:27;3.60;;;1.88;;
59734;SDS011;64362;45.620;4.920;2022-11-21T11:56:15;4.93;;;1.92;;
59734;SDS011;64362;45.620;4.920;2022-11-21T12:01:44;4.65;;;1.90;;
59734;SDS011;64362;45.620;4.920;2022-11-21T12:04:15;4.72;;;2.10;;
59734;SDS011;64362;45.620;4.920;2022-11-21T12:09:31;4.72;;;2.22;;
59734;SDS011;64362;45.620;4.920;2022-11-21T12:12:15;4.32;;;2.10;;
59734;SDS011;64362;45.620;4.920;2022-11-21T12:17:42;6.47;;;2.08;;
59734;SDS011;64362;45.620;4.920;2022-11-21T12:20:35;3.63;;;1.80;;
59734;SDS011;64362;45.620;4.920;2022-11-21T12:23:08;4.05;;;2.00;;
59734;SDS011;64362;45.620;4.920;2022-11-21T12:25:40;4.07;;;1.73;;
59734;SDS011;64362;45.620;4.920;2022-11-21T12:28:15;4.28;;;1.80;;
59734;SDS011;64362;45.620;4.920;2022-11-21T12:30:54;3.17;;;1.60;;
59734;SDS011;64362;45.620;4.920;2022-11-21T12:33:33;2.35;;;1.67;;
59734;SDS011;64362;45.620;4.920;2022-11-21T12:36:10;3.15;;;1.98;;
59734;SDS011;64362;45.620;4.920;2022-11-21T12:38:45;3.90;;;1.60;;
59734;SDS011;64362;45.620;4.920;2022-11-21T12:44:07;3.88;;;1.70;;
59734;SDS011;64362;45.620;4.920;2022-11-21T12:55:36;3.38;;;1.67;;
59734;SDS011;64362;45.620;4.920;2022-11-21T13:03:32;3.67;;;1.48;;
59734;SDS011;64362;45.620;4.920;2022-11-21T13:06:03;4.00;;;1.50;;
59734;SDS011;64362;45.620;4.920;2022-11-21T13:08:33;2.85;;;1.48;;
59734;SDS011;64362;45.620;4.920;2022-11-21T13:14:27;3.65;;;1.80;;
59734;SDS011;64362;45.620;4.920;2022-11-21T13:19:56;3.92;;;1.48;;
59734;SDS011;64362;45.620;4.920;2022-11-21T13:22:59;4.72;;;1.58;;
59734;SDS011;64362;45.620;4.920;2022-11-21T13:28:21;4.05;;;1.50;;
59734;SDS011;64362;45.620;4.920;2022-11-21T13:30:50;3.72;;;1.60;;
59734;SDS011;64362;45.620;4.920;2022-11-21T13:36:09;2.35;;;1.20;;
59734;SDS011;64362;45.620;4.920;2022-11-21T13:47:00;3.72;;;1.52;;
59734;SDS011;64362;45.620;4.920;2022-11-21T13:54:56;3.60;;;1.30;;
59734;SDS011;64362;45.620;4.920;2022-11-21T14:08:36;3.47;;;1.30;;
59734;SDS011;64362;45.620;4.920;2022-11-21T14:11:17;4.35;;;1.38;;
59734;SDS011;64362;45.620;4.920;2022-11-21T14:13:45;2.25;;;1.25;;
59734;SDS011;64362;45.620;4.920;2022-11-21T14:18:46;3.23;;;1.40;;
59734;SDS011;64362;45.620;4.920;2022-11-21T14:21:30;3.38;;;1.50;;
59734;SDS011;64362;45.620;4.920;2022-11-21T14:23:57;4.35;;;1.30;;
59734;SDS011;64362;45.620;4.920;2022-11-21T14:26:38;3.50;;;1.20;;
59734;SDS011;64362;45.620;4.920;2022-11-21T14:29:18;4.60;;;1.20;;
59734;SDS011;64362;45.620;4.920;2022-11-21T14:31:51;4.60;;;1.40;;
59734;SDS011;64362;45.620;4.920;2022-11-21T14:34:23;2.92;;;1.00;;
59734;SDS011;64362;45.620;4.920;2022-11-21T14:36:50;4.13;;;1.27;;
59734;SDS011;64362;45.620;4.920;2022-11-21T14:39:16;2.35;;;1.10;;
59734;SDS011;64362;45.620;4.920;2022-11-21T14:41:42;3.35;;;1.25;;
59734;SDS011;64362;45.620;4.920;2022-11-21T14:46:38;3.47;;;1.20;;
59734;SDS011;64362;45.620;4.920;2022-11-21T14:51:40;3.60;;;1.25;;
59734;SDS011;64362;45.620;4.920;2022-11-21T14:54:16;2.65;;;1.40;;
59734;SDS011;64362;45.620;4.920;2022-11-21T14:56:47;2.30;;;1.00;;
59734;SDS011;64362;45.620;4.920;2022-11-21T14:59:22;4.00;;;1.20;;
59734;SDS011;64362;45.620;4.920;2022-11-21T15:01:59;1.92;;;0.95;;
59734;SDS011;64362;45.620;4.920;2022-11-21T15:04:31;3.00;;;1.10;;
59734;SDS011;64362;45.620;4.920;2022-11-21T15:06:58;3.08;;;1.33;;
59734;SDS011;64362;45.620;4.920;2022-11-21T15:09:24;3.42;;;1.02;;
59734;SDS011;64362;45.620;4.920;2022-11-21T15:15:00;2.97;;;1.00;;
59734;SDS011;64362;45.620;4.920;2022-11-21T15:17:12;2.33;;;1.02;;
59734;SDS011;64362;45.620;4.920;2022-11-21T15:19:38;2.22;;;1.10;;
59734;SDS011;64362;45.620;4.920;2022-11-21T15:22:05;3.35;;;1.08;;
59734;SDS011;64362;45.620;4.920;2022-11-21T15:32:31;2.78;;;1.00;;
59734;SDS011;64362;45.620;4.920;2022-11-21T15:34:56;2.33;;;1.02;;
59734;SDS011;64362;45.620;4.920;2022-11-21T15:37:22;2.05;;;0.95;;
59734;SDS011;64362;45.620;4.920;2022-11-21T15:39:49;3.72;;;1.30;;
59734;SDS011;64362;45.620;4.920;2022-11-21T15:45:00;3.65;;;1.10;;
59734;SDS011;64362;45.620;4.920;2022-11-21T15:47:38;2.85;;;1.10;;
59734;SDS011;64362;45.620;4.920;2022-11-21T15:50:03;2.17;;;1.10;;
59734;SDS011;64362;45.620;4.920;2022-11-21T15:52:29;3.22;;;1.17;;
59734;SDS011;64362;45.620;4.920;2022-11-21T15:54:54;2.05;;;1.00;;
59734;SDS011;64362;45.620;4.920;2022-11-21T15:57:20;2.58;;;0.90;;
59734;SDS011;64362;45.620;4.920;2022-11-21T15:59:45;3.85;;;1.27;;
59734;SDS011;64362;45.620;4.920;2022-11-21T16:02:12;2.53;;;1.10;;
59734;SDS011;64362;45.620;4.920;2022-11-21T16:04:38;1.77;;;1.10;;
59734;SDS011;64362;45.620;4.920;2022-11-21T16:07:03;2.25;;;1.00;;
59734;SDS011;64362;45.620;4.920;2022-11-21T16:09:29;2.30;;;1.15;;
59734;SDS011;64362;45.620;4.920;2022-11-21T16:11:54;2.47;;;0.90;;
59734;SDS011;64362;45.620;4.920;2022-11-21T16:14:20;2.17;;;0.93;;
59734;SDS011;64362;45.620;4.920;2022-11-21T16:16:45;1.85;;;1.02;;
59734;SDS011;64362;45.620;4.920;2022-11-21T16:19:11;3.17;;;1.23;;
59734;SDS011;64362;45.620;4.920;2022-11-21T16:21:37;3.03;;;1.10;;
59734;SDS011;64362;45.620;4.920;2022-11-21T16:24:03;2.97;;;1.30;;
59734;SDS011;64362;45.620;4.920;2022-11-21T16:26:29;2.35;;;0.88;;
59734;SDS011;64362;45.620;4.920;2022-11-21T16:28:54;2.70;;;1.00;;
59734;SDS011;64362;45.620;4.920;2022-11-21T16:31:22;1.58;;;0.77;;
59734;SDS011;64362;45.620;4.920;2022-11-21T16:33:48;2.72;;;0.98;;
59734;SDS011;64362;45.620;4.920;2022-11-21T16:36:27;1.67;;;0.85;;
59734;SDS011;64362;45.620;4.920;2022-11-21T16:38:54;2.25;;;0.90;;
59734;SDS011;64362;45.620;4.920;2022-11-21T16:41:21;2.40;;;1.00;;
59734;SDS011;64362;45.620;4.920;2022-11-21T16:43:48;2.50;;;1.08;;
59734;SDS011;64362;45.620;4.920;2022-11-21T16:46:14;2.13;;;0.73;;
59734;SDS011;64362;45.620;4.920;2022-11-21T16:48:40;2.33;;;0.80;;
59734;SDS011;64362;45.620;4.920;2022-11-21T16:51:13;1.70;;;0.90;;